Terminal Aerodrome Forecast
Issued by NWS Kansas City/Pleasant Hill, MO

Home | Current Version | Previous Version | Text Only | Print | Product List | Glossary On
Versions: 1 2 3 4 5 6 7 8 9 10 11 12 13 14 15 16
000
FTUS43 KEAX 022300
TAFMCI
TAF
KMCI 022335Z 0300/0324 14012KT P6SM BKN030
     FM030300 16014KT 3SM -DZ BR OVC012
     FM031400 20018G25KT P6SM OVC030
     FM032000 30015G23KT P6SM BKN035=

USA.gov is the U.S. government's official web portal to all federal, state and local government web resources and services.